Aviation Digital Data Service (ADDS)

Output produced by METARs form (1213 UTC 01 October 2014)
found at http://aviationweather.gov/adds/metars/
 
KPQI 011120Z 0112/0212 02004KT P6SM BKN009 
     FM011300 02004KT P6SM SCT020 
     FM011700 VRB03KT P6SM SCT050 AMD LTD TO CLD VIS AND WIND